Saturday, May 26, 2018, 8:14 AM EDT

KSHD, Staunton / Shenandoah

Location: Weyers Cave, VA, United States Lat: 38.267
Local Time: 8:14 AM EDT (12:14 GMT) Lon: -78.9
Time Zone: US/Eastern Elev: 1200 ft

Show me the last for .
Show Decoded

2018-05-26 07:55 METAR KSHD 261155Z AUTO 19003KT 10SM SCT110 21/18 A2997 RMK AO2 T02100177 10210
                 20187 =
2018-05-26 07:35 METAR KSHD 261135Z AUTO 00000KT 10SM CLR 21/18 A2996 RMK AO2 T02060175 =
2018-05-26 07:15 METAR KSHD 261115Z AUTO 19003KT 10SM CLR 20/18 A2996 RMK AO2 T02020175 =
2018-05-26 06:55 METAR KSHD 261055Z AUTO 21003KT 10SM CLR 20/17 A2996 RMK AO2 T02000174 =
2018-05-26 06:35 METAR KSHD 261035Z AUTO 18004KT 10SM CLR 20/17 A2995 RMK AO2 T01950172 =
2018-05-26 06:15 METAR KSHD 261015Z AUTO 00000KT 10SM CLR 19/17 A2995 RMK AO2 T01910173 =
2018-05-26 05:55 METAR KSHD 260955Z AUTO 18003KT 10SM CLR 19/17 A2995 RMK AO2 T01920171 =
2018-05-26 05:35 METAR KSHD 260935Z AUTO 17003KT 10SM CLR 19/17 A2994 RMK AO2 T01890171 =
2018-05-26 05:15 METAR KSHD 260915Z AUTO 17003KT 10SM SCT120 19/17 A2995 RMK AO2 T01910171 =
2018-05-26 04:55 METAR KSHD 260855Z AUTO 16003KT 10SM SCT120 20/17 A2995 RMK AO2 T01950172 =
2018-05-26 04:35 METAR KSHD 260835Z AUTO 18005KT 10SM SCT095 19/17 A2995 RMK AO2 T01930174 =
2018-05-26 04:15 METAR KSHD 260815Z AUTO 00000KT 10SM OVC095 19/18 A2995 RMK AO2 T01940175 =
2018-05-26 03:55 METAR KSHD 260755Z AUTO 00000KT 10SM OVC085 20/18 A2996 RMK AO2 T01970176 =
2018-05-26 03:35 METAR KSHD 260735Z AUTO 00000KT 10SM BKN085 19/18 A2995 RMK AO2 T01900175 =
2018-05-26 03:15 METAR KSHD 260715Z AUTO 00000KT 10SM SCT095 19/18 A2995 RMK AO2 T01930175 =
2018-05-26 02:55 METAR KSHD 260655Z AUTO 00000KT 10SM CLR 19/18 A2996 RMK AO2 T01940175 =
2018-05-26 02:35 METAR KSHD 260635Z AUTO 11004KT 10SM CLR 20/18 A2996 RMK AO2 T01990178 =
2018-05-26 02:15 METAR KSHD 260615Z AUTO 00000KT 10SM CLR 20/18 A2996 RMK AO2 T02000180 =
2018-05-26 01:55 METAR KSHD 260555Z AUTO 16003KT 10SM CLR 20/18 A2996 RMK AO2 T01990180 10252
                 20191 402870110 =
2018-05-26 01:35 METAR KSHD 260535Z AUTO 17003KT 10SM SCT095 20/18 A2997 RMK AO2 T01950177 =
2018-05-26 01:15 METAR KSHD 260515Z AUTO 00000KT 10SM SCT095 19/18 A2997 RMK AO2 T01940176 =
2018-05-26 00:55 METAR KSHD 260455Z AUTO 00000KT 10SM CLR 19/18 A2997 RMK AO2 T01920176 =
2018-05-26 00:35 METAR KSHD 260435Z AUTO 15003KT 10SM SCT100 20/18 A2998 RMK AO2 T01960176 =
2018-05-26 00:15 METAR KSHD 260415Z AUTO 00000KT 10SM SCT100 20/18 A2998 RMK AO2 T02020177 =
2018-05-25 23:55 METAR KSHD 260355Z AUTO 00000KT 10SM CLR 20/18 A2999 RMK AO2 T02020177 =
2018-05-25 23:35 METAR KSHD 260335Z AUTO 00000KT 10SM CLR 20/18 A2999 RMK AO2 T02030177 =
2018-05-25 23:15 METAR KSHD 260315Z AUTO 00000KT 10SM CLR 20/18 A2999 RMK AO2 T02040177 =
2018-05-25 22:55 METAR KSHD 260255Z AUTO 17003KT 10SM CLR 21/18 A2999 RMK AO2 T02130178 =
2018-05-25 22:35 METAR KSHD 260235Z AUTO 00000KT 10SM CLR 22/18 A2999 RMK AO2 T02150179 =
2018-05-25 22:15 METAR KSHD 260215Z AUTO 19003KT 10SM CLR 22/18 A2999 RMK AO2 T02200180 =
2018-05-25 21:55 METAR KSHD 260155Z AUTO 19004KT 10SM CLR 23/18 A2998 RMK AO2 T02270181 =
2018-05-25 21:35 METAR KSHD 260135Z AUTO 18006KT 10SM CLR 23/18 A2998 RMK AO2 T02280181 =
2018-05-25 21:15 METAR KSHD 260115Z AUTO 20005KT 10SM CLR 23/18 A2998 RMK AO2 T02330181 =
2018-05-25 20:55 METAR KSHD 260055Z AUTO 19005KT 10SM CLR 24/18 A2998 RMK AO2 T02370181 =
2018-05-25 20:35 METAR KSHD 260035Z AUTO 20006KT 10SM CLR 24/18 A2997 RMK AO2 LTG DSNT N
                 T02400180 =
2018-05-25 20:15 METAR KSHD 260015Z AUTO 18004KT 10SM CLR 25/18 A2996 RMK AO2 LTG DSNT N
                 T02460180 =
2018-05-25 19:55 METAR KSHD 252355Z AUTO 19009KT 10SM CLR 25/18 A2996 RMK AO2 LTG DSNT N
                 T02530177 10287 20253 =
2018-05-25 19:35 METAR KSHD 252335Z AUTO 19007KT 10SM CLR 26/18 A2996 RMK AO2 T02590179 =
2018-05-25 19:15 METAR KSHD 252315Z AUTO 19009KT 10SM CLR 26/18 A2996 RMK AO2 T02640179 =
2018-05-25 18:55 METAR KSHD 252255Z AUTO 19008KT 10SM SCT046 SCT060 27/18 A2996 RMK AO2 T02700180
                 =
2018-05-25 18:35 METAR KSHD 252235Z AUTO 20008G14KT 10SM CLR 28/18 A2996 RMK AO2 T02750178 =
2018-05-25 18:15 METAR KSHD 252215Z AUTO 20008G14KT 10SM CLR 28/18 A2996 RMK AO2 T02790176 =
2018-05-25 17:55 METAR KSHD 252155Z AUTO 22010G14KT 10SM CLR 28/18 A2997 RMK AO2 T02810175 =
2018-05-25 17:35 METAR KSHD 252135Z AUTO 21011G14KT 10SM CLR 28/18 A2997 RMK AO2 T02820178 =
2018-05-25 17:15 METAR KSHD 252115Z AUTO 18006KT 10SM SCT046 28/19 A2997 RMK AO2 T02840191 =
2018-05-25 16:55 METAR KSHD 252055Z AUTO 20008KT 170V230 10SM SCT046 28/19 A2998 RMK AO2
                 T02810189 =
2018-05-25 16:35 METAR KSHD 252035Z AUTO 16009KT 10SM SCT045 SCT050 28/19 A2998 RMK AO2 T02790194
                 =
2018-05-25 16:15 METAR KSHD 252015Z AUTO 18008G14KT 10SM SCT046 28/19 A2999 RMK AO2 T02750191 =
2018-05-25 15:55 METAR KSHD 251955Z AUTO 16009KT 10SM SCT046 28/19 A3000 RMK AO2 T02760190 =
2018-05-25 15:35 METAR KSHD 251935Z AUTO 18007KT 10SM SCT046 SCT050 28/19 A3000 RMK AO2 T02770194
                 =
2018-05-25 15:15 METAR KSHD 251915Z AUTO 16009G15KT 10SM SCT044 SCT050 28/19 A3001 RMK AO2
                 T02830192 =
2018-05-25 14:55 METAR KSHD 251855Z AUTO 20008G15KT 10SM CLR 28/18 A3002 RMK AO2 T02790182 =
2018-05-25 14:35 METAR KSHD 251835Z AUTO 18010G14KT 10SM CLR 28/19 A3003 RMK AO2 T02800187 =
2018-05-25 14:15 METAR KSHD 251815Z AUTO 21008G15KT 10SM SCT044 28/18 A3004 RMK AO2 T02810178 =
2018-05-25 13:55 METAR KSHD 251755Z AUTO 22008G15KT 10SM SCT044 28/18 A3004 RMK AO2 T02770180
                 10279 20154 =
2018-05-25 13:35 METAR KSHD 251735Z AUTO 21005KT 10SM CLR 28/18 A3005 RMK AO2 T02780182 =
2018-05-25 13:15 METAR KSHD 251715Z AUTO 21007KT 10SM CLR 27/18 A3006 RMK AO2 T02740181 =
2018-05-25 12:55 METAR KSHD 251655Z AUTO 19005KT 10SM SCT040 27/18 A3007 RMK AO2 T02700181 =
2018-05-25 12:35 METAR KSHD 251635Z AUTO 22008KT 10SM CLR 27/18 A3007 RMK AO2 T02710176 =
2018-05-25 12:15 METAR KSHD 251615Z AUTO 22007KT 10SM CLR 27/17 A3008 RMK AO2 T02680174 =
2018-05-25 11:55 METAR KSHD 251555Z AUTO 22009KT 10SM CLR 26/17 A3009 RMK AO2 T02630172 =
2018-05-25 11:35 METAR KSHD 251535Z AUTO 24009KT 10SM CLR 26/17 A3010 RMK AO2 T02600170 =
2018-05-25 11:15 METAR KSHD 251515Z AUTO 20010KT 10SM CLR 26/17 A3010 RMK AO2 T02570171 =
2018-05-25 10:55 METAR KSHD 251455Z AUTO 19007KT 10SM CLR 25/17 A3011 RMK AO2 T02540170 =
2018-05-25 10:35 METAR KSHD 251435Z AUTO 19005KT 10SM CLR 24/17 A3012 RMK AO2 T02440168 =
2018-05-25 10:15 METAR KSHD 251415Z AUTO 15005KT 10SM CLR 24/16 A3012 RMK AO2 T02350160 =
2018-05-25 09:55 METAR KSHD 251355Z AUTO 20005KT 10SM CLR 23/15 A3013 RMK AO2 T02260152 =
2018-05-25 09:35 METAR KSHD 251335Z AUTO 21003KT 10SM CLR 22/15 A3014 RMK AO2 T02200146 =
2018-05-25 09:15 METAR KSHD 251315Z AUTO 00000KT 10SM CLR 21/15 A3014 RMK AO2 T02070151 =
2018-05-25 08:55 METAR KSHD 251255Z AUTO 00000KT 10SM CLR 20/15 A3014 RMK AO2 T01970146 =
2018-05-25 08:35 METAR KSHD 251235Z AUTO 16003KT 10SM CLR 18/14 A3014 RMK AO2 T01840140 =
2018-05-25 08:15 METAR KSHD 251215Z AUTO 00000KT 10SM CLR 17/14 A3015 RMK AO2 T01680139 =

Support USWX by starting your Amazon purchase here.